Time;durP1;ratioP1;P1;durP2;ratioP2;P2;SDS_P1;SDS_P2;PMS_P1;PMS_P2;Temp;Humidity;BMP_temperature;BMP_pressure;BME280_temperature;BME280_humidity;BME280_pressure;Samples;Min_cycle;Max_cycle;Signal;HPM_P1;HPM_P2
2023/10/17 00:00:12;;;;;;;29.48;13.98;;;;;;;7.26;67.16;100752.31;5028585;27;96749;-79
2023/10/17 00:02:40;;;;;;;22.10;11.75;;;;;;;7.39;67.91;100782.59;5031535;28;101509;-81
2023/10/17 00:05:08;;;;;;;20.48;10.48;;;;;;;7.51;67.71;100793.78;5028220;27;97394;-79
2023/10/17 00:07:35;;;;;;;26.10;11.55;;;;;;;7.45;67.75;100781.66;5037461;27;98045;-79
2023/10/17 00:10:00;;;;;;;23.63;11.75;;;;;;;7.53;67.85;100778.91;5035552;27;97199;-79
2023/10/17 00:12:33;;;;;;;20.35;10.85;;;;;;;7.59;68.12;100789.28;5021185;27;97451;-79
2023/10/17 00:15:00;;;;;;;25.30;10.52;;;;;;;7.46;68.17;100763.34;5012164;27;100926;-80
2023/10/17 00:17:26;;;;;;;19.65;10.75;;;;;;;7.62;67.86;100768.34;5017436;27;98446;-79
2023/10/17 00:19:51;;;;;;;24.08;11.90;;;;;;;7.66;68.04;100776.13;5020748;28;97478;-79
2023/10/17 00:22:23;;;;;;;23.95;11.80;;;;;;;7.47;67.90;100741.53;5018187;27;101059;-79
2023/10/17 00:24:54;;;;;;;22.95;11.43;;;;;;;7.67;68.00;100771.75;5030163;27;97616;-79
2023/10/17 00:27:19;;;;;;;21.40;11.02;;;;;;;7.77;67.97;100781.19;5015867;28;96784;-79
2023/10/17 00:29:45;;;;;;;27.40;11.60;;;;;;;7.67;67.83;100764.75;5007416;27;97208;-79
2023/10/17 00:32:12;;;;;;;20.08;10.18;;;;;;;7.79;68.18;100784.63;5001825;28;101007;-79
2023/10/17 00:34:38;;;;;;;19.85;11.48;;;;;;;7.64;67.92;100756.13;5016408;27;97898;-79
2023/10/17 00:37:10;;;;;;;22.25;10.63;;;;;;;7.75;68.35;100776.88;5027753;28;97137;-79
2023/10/17 00:39:37;;;;;;;17.65;9.90;;;;;;;7.82;68.11;100779.34;5018370;27;97030;-79
2023/10/17 00:44:38;;;;;;;15.95;10.10;;;;;;;7.67;68.19;100762.16;5017508;27;98087;-79
2023/10/17 00:47:05;;;;;;;17.55;10.13;;;;;;;7.80;67.91;100777.66;5024590;27;97022;-79
2023/10/17 00:49:33;;;;;;;20.20;9.95;;;;;;;7.60;68.16;100749.22;5022932;27;97297;-79
2023/10/17 00:52:03;;;;;;;19.50;10.38;;;;;;;7.68;68.51;100782.19;5025816;27;97590;-79
2023/10/17 00:54:31;;;;;;;18.25;10.02;;;;;;;7.66;68.35;100778.72;5041448;27;98025;-80
2023/10/17 00:57:00;;;;;;;18.27;9.13;;;;;;;7.63;68.73;100778.78;5037205;27;96956;-79
2023/10/17 00:59:29;;;;;;;16.90;9.32;;;;;;;7.52;68.71;100770.22;5028987;27;97030;-79
2023/10/17 01:02:06;;;;;;;16.88;9.77;;;;;;;7.58;68.74;100798.00;5029212;27;100754;-80
2023/10/17 01:04:33;;;;;;;16.98;9.80;;;;;;;7.52;68.93;100788.50;5034710;27;98046;-80
2023/10/17 01:07:05;;;;;;;18.13;9.20;;;;;;;7.51;68.87;100789.41;5035259;27;97296;-79
2023/10/17 01:09:35;;;;;;;16.50;9.73;;;;;;;7.44;68.86;100787.75;5023364;27;96737;-79
2023/10/17 01:12:10;;;;;;;17.55;10.63;;;;;;;7.30;69.38;100780.13;5034645;27;100993;-79
2023/10/17 01:14:36;;;;;;;19.20;9.77;;;;;;;7.35;68.99;100788.75;5047353;27;101209;-79
2023/10/17 01:17:12;;;;;;;19.23;9.48;;;;;;;7.31;69.28;100787.06;5030567;27;97196;-80
2023/10/17 01:19:38;;;;;;;21.17;10.73;;;;;;;7.33;68.94;100787.03;5039452;27;96925;-79
2023/10/17 01:22:04;;;;;;;18.83;9.90;;;;;;;7.15;69.18;100782.91;5017043;27;101283;-79
2023/10/17 01:24:29;;;;;;;18.10;9.90;;;;;;;7.05;69.44;100760.44;5040395;27;101236;-80
2023/10/17 01:26:55;;;;;;;15.45;9.50;;;;;;;7.16;69.02;100785.50;5042889;27;96764;-79
2023/10/17 01:29:21;;;;;;;19.20;10.20;;;;;;;7.05;69.32;100786.53;5018113;27;97375;-79
2023/10/17 01:31:50;;;;;;;18.92;10.02;;;;;;;6.86;69.39;100752.81;5043906;27;98429;-80
2023/10/17 01:34:16;;;;;;;18.33;10.13;;;;;;;6.76;69.53;100749.44;5062024;27;98145;-78
2023/10/17 01:36:43;;;;;;;17.70;9.88;;;;;;;7.00;69.52;100789.19;5048885;27;97082;-79
2023/10/17 01:39:09;;;;;;;19.58;11.75;;;;;;;6.90;69.54;100784.97;5039549;27;97145;-79
2023/10/17 01:41:36;;;;;;;14.20;10.63;;;;;;;6.86;69.39;100778.91;5033503;27;101734;-79
2023/10/17 01:44:02;;;;;;;18.27;11.45;;;;;;;6.84;69.49;100782.44;5029409;27;97370;-79
2023/10/17 01:46:31;;;;;;;19.88;10.88;;;;;;;6.85;69.11;100784.16;5021216;27;96844;-81
2023/10/17 01:48:59;;;;;;;18.85;11.52;;;;;;;6.88;68.62;100787.59;5029740;27;97235;-79
2023/10/17 01:51:26;;;;;;;21.10;11.23;;;;;;;6.89;69.13;100788.44;5044386;27;101592;-79
2023/10/17 01:53:52;;;;;;;22.20;10.68;;;;;;;6.82;68.41;100782.44;5024240;27;98438;-79
2023/10/17 01:56:28;;;;;;;21.60;12.00;;;;;;;6.88;68.62;100789.34;5048969;27;96774;-81
2023/10/17 01:58:55;;;;;;;16.95;10.70;;;;;;;6.75;68.96;100786.00;5010784;27;97349;-79
2023/10/17 02:01:25;;;;;;;17.42;11.23;;;;;;;6.61;68.63;100761.81;5020247;27;101299;-80
2023/10/17 02:03:52;;;;;;;16.77;10.00;;;;;;;6.71;68.69;100786.91;5045883;27;98358;-80
2023/10/17 02:06:17;;;;;;;18.52;10.68;;;;;;;6.74;68.60;100792.94;5021212;27;97370;-79
2023/10/17 02:08:46;;;;;;;19.45;10.88;;;;;;;6.56;68.39;100777.50;5034557;27;96932;-80
2023/10/17 02:11:13;;;;;;;19.10;11.85;;;;;;;6.77;68.23;100792.91;5000647;27;101119;-79
2023/10/17 02:13:42;;;;;;;18.27;11.13;;;;;;;6.80;68.25;100795.50;5033994;27;97956;-79
2023/10/17 02:16:10;;;;;;;18.58;10.63;;;;;;;6.70;67.72;100785.19;5048215;27;96998;-79
2023/10/17 02:18:36;;;;;;;17.15;11.30;;;;;;;6.66;67.88;100781.75;5033405;27;97034;-79
2023/10/17 02:21:04;;;;;;;21.33;11.85;;;;;;;6.66;67.88;100796.53;5050281;27;98178;-81
2023/10/17 02:23:39;;;;;;;20.27;13.85;;;;;;;6.39;68.11;100748.13;5051928;27;98062;-79
2023/10/17 02:26:10;;;;;;;24.30;12.93;;;;;;;6.53;68.44;100788.81;5032031;27;96727;-80
2023/10/17 02:28:46;;;;;;;18.58;13.52;;;;;;;6.47;68.62;100793.25;5025591;27;97035;-79
2023/10/17 02:31:13;;;;;;;18.75;15.98;;;;;;;6.34;68.22;100763.78;5033963;27;98524;-79
2023/10/17 02:33:41;;;;;;;33.78;30.45;;;;;;;6.52;68.24;100797.53;5048769;27;97402;-79
2023/10/17 02:36:09;;;;;;;24.33;16.25;;;;;;;6.40;67.95;100775.91;5044522;27;98286;-79
2023/10/17 02:38:34;;;;;;;19.90;16.08;;;;;;;6.44;67.88;100791.53;5012925;27;97187;-79
2023/10/17 02:41:01;;;;;;;20.70;14.68;;;;;;;6.04;67.98;100724.09;5027544;27;100914;-80
2023/10/17 02:43:29;;;;;;;26.10;17.27;;;;;;;6.41;68.21;100791.56;5029941;27;98267;-79
2023/10/17 02:45:59;;;;;;;22.60;16.95;;;;;;;6.41;68.09;100782.88;5025664;27;98045;-79
2023/10/17 02:48:26;;;;;;;23.02;15.20;;;;;;;6.00;68.42;100735.44;5037273;27;97288;-79
2023/10/17 02:51:02;;;;;;;20.95;13.40;;;;;;;6.23;68.36;100782.16;5036337;27;101075;-79
2023/10/17 02:53:29;;;;;;;19.85;14.10;;;;;;;6.19;68.42;100771.75;5034888;27;101446;-79
2023/10/17 02:55:58;;;;;;;20.20;11.93;;;;;;;5.96;68.57;100751.97;5045119;27;96709;-78
2023/10/17 02:58:23;;;;;;;22.17;16.90;;;;;;;5.98;68.83;100758.03;5040175;27;96932;-79
2023/10/17 03:00:52;;;;;;;25.15;15.75;;;;;;;6.21;68.98;100790.88;5029872;27;97951;-79
2023/10/17 03:03:19;;;;;;;25.38;20.95;;;;;;;6.08;68.41;100775.34;5016811;27;101318;-79
2023/10/17 03:05:50;;;;;;;20.63;13.13;;;;;;;6.16;68.67;100801.31;5033745;27;97146;-79
2023/10/17 03:08:20;;;;;;;26.38;12.98;;;;;;;6.08;69.06;100796.19;5043220;27;96777;-79
2023/10/17 03:10:47;;;;;;;19.52;12.93;;;;;;;6.14;69.38;100790.06;5028034;27;101273;-79
2023/10/17 03:15:46;;;;;;;27.83;14.07;;;;;;;6.15;68.73;100786.56;5035535;27;96780;-79
2023/10/17 03:18:15;;;;;;;26.08;15.32;;;;;;;6.15;69.33;100785.72;5046792;27;96859;-81
2023/10/17 03:20:50;;;;;;;28.92;14.57;;;;;;;6.21;69.51;100799.56;5032541;27;100952;-81
2023/10/17 03:23:20;;;;;;;17.70;10.57;;;;;;;6.30;69.01;100804.69;5036670;27;99750;-80
2023/10/17 03:25:48;;;;;;;23.17;11.10;;;;;;;6.27;68.78;100801.25;5052917;27;97334;-79
2023/10/17 03:28:15;;;;;;;18.63;10.68;;;;;;;6.19;69.18;100792.63;5029850;27;98014;-79
2023/10/17 03:30:47;;;;;;;20.02;11.45;;;;;;;6.26;68.92;100789.09;5037538;27;101061;-80
2023/10/17 03:33:14;;;;;;;23.83;11.00;;;;;;;6.28;69.18;100800.34;5047578;27;97867;-80
2023/10/17 03:35:56;;;;;;;24.08;12.02;;;;;;;6.32;69.55;100804.69;5055874;27;96825;-79
2023/10/17 03:38:26;;;;;;;18.70;11.97;;;;;;;6.06;69.41;100771.03;5019312;27;97384;-79
2023/10/17 03:40:53;;;;;;;20.67;11.35;;;;;;;6.32;69.85;100799.47;5041924;27;101037;-79
2023/10/17 03:43:28;;;;;;;19.83;10.43;;;;;;;6.25;69.75;100800.38;5039342;27;97327;-79
2023/10/17 03:45:56;;;;;;;23.63;12.18;;;;;;;6.38;69.58;100820.28;5016289;27;96965;-79
2023/10/17 03:48:23;;;;;;;20.05;10.90;;;;;;;6.47;69.32;100816.72;5022399;27;97083;-80
2023/10/17 03:50:59;;;;;;;18.95;11.60;;;;;;;6.45;69.16;100814.09;5038828;27;97865;-80
2023/10/17 03:53:28;;;;;;;20.73;11.30;;;;;;;6.41;69.38;100808.97;5056009;27;98083;-80
2023/10/17 03:55:54;;;;;;;25.98;12.02;;;;;;;6.50;69.57;100822.75;5042951;27;96814;-79
2023/10/17 04:00:50;;;;;;;30.65;12.15;;;;;;;6.46;68.85;100789.78;5044539;27;101005;-81
2023/10/17 04:03:19;;;;;;;18.65;10.63;;;;;;;6.55;69.15;100797.50;5061738;27;97809;-79
2023/10/17 04:05:49;;;;;;;20.80;11.48;;;;;;;6.68;69.04;100815.63;5022566;27;96827;-78
2023/10/17 04:08:31;;;;;;;27.63;11.93;;;;;;;6.64;69.02;100803.53;5030898;27;97133;-79
2023/10/17 04:11:14;;;;;;;22.05;11.82;;;;;;;6.57;69.29;100803.59;5041101;27;101654;-79
2023/10/17 04:13:40;;;;;;;21.13;11.95;;;;;;;6.52;69.53;100784.50;5041421;27;97888;-79
2023/10/17 04:16:10;;;;;;;24.55;11.02;;;;;;;6.57;69.81;100800.97;5039722;27;96859;-79
2023/10/17 04:18:39;;;;;;;22.95;10.48;;;;;;;6.68;69.83;100810.41;5045230;27;97414;-79
2023/10/17 04:21:18;;;;;;;22.13;11.13;;;;;;;6.47;69.95;100775.84;5008107;27;101233;-80
2023/10/17 04:23:49;;;;;;;22.25;11.30;;;;;;;6.70;69.82;100798.22;5034223;27;100927;-80
2023/10/17 04:26:19;;;;;;;18.13;11.20;;;;;;;6.76;70.04;100812.06;5044593;27;96820;-78
2023/10/17 04:28:51;;;;;;;25.48;10.38;;;;;;;6.77;69.81;100811.19;5037942;27;96881;-80
2023/10/17 04:31:26;;;;;;;22.23;11.48;;;;;;;6.72;69.90;100807.78;5028664;27;101460;-79
2023/10/17 04:33:58;;;;;;;27.30;12.45;;;;;;;6.71;70.44;100808.63;5016213;27;100891;-79
2023/10/17 04:36:26;;;;;;;26.52;11.43;;;;;;;6.61;69.98;100790.50;5027450;27;96758;-78
2023/10/17 04:41:41;;;;;;;24.02;11.95;;;;;;;6.79;70.23;100814.66;5054906;27;97825;-79
2023/10/17 04:44:15;;;;;;;23.13;12.60;;;;;;;6.73;70.07;100790.38;5028297;27;101707;-79
2023/10/17 04:46:50;;;;;;;20.73;10.90;;;;;;;6.81;70.24;100812.03;5054388;27;96772;-80
2023/10/17 04:49:21;;;;;;;18.33;11.13;;;;;;;6.75;70.20;100794.69;5025185;27;97129;-80
2023/10/17 04:51:52;;;;;;;22.33;12.25;;;;;;;6.90;70.19;100817.16;5045518;27;97430;-78
2023/10/17 04:54:31;;;;;;;36.05;14.13;;;;;;;6.92;70.41;100825.84;5024041;27;98196;-78
2023/10/17 04:57:00;;;;;;;25.42;13.77;;;;;;;6.83;70.82;100819.81;5042011;27;96878;-78
2023/10/17 06:18:38;;;;;;;24.00;13.27;;;;;;;7.86;65.71;100874.28;5054654;27;101304;-76
2023/10/17 06:34:15;;;;;;;35.55;14.32;;;;;;;8.39;64.37;100865.66;5044899;27;96795;-73
2023/10/17 06:36:41;;;;;;;25.73;13.32;;;;;;;8.64;64.40;100874.81;5030950;27;97188;-78
2023/10/17 06:39:18;;;;;;;29.65;13.68;;;;;;;8.66;63.70;100845.13;5054138;27;97596;-73
2023/10/17 06:41:47;;;;;;;20.85;12.52;;;;;;;8.94;62.76;100857.72;5046386;27;98062;-71
2023/10/17 06:44:23;;;;;;;25.13;14.10;;;;;;;8.95;63.10;100886.47;5040057;27;97327;-73
2023/10/17 06:49:46;;;;;;;26.60;14.25;;;;;;;8.80;62.44;100826.56;5061948;27;97460;-73
2023/10/17 06:54:42;;;;;;;25.40;13.15;;;;;;;9.27;62.60;100888.50;5061598;27;96769;-78
2023/10/17 06:57:23;;;;;;;21.30;13.07;;;;;;;9.07;62.83;100854.84;5042252;27;97341;-75
2023/10/17 07:00:04;;;;;;;27.27;14.07;;;;;;;9.32;62.26;100871.84;5043265;27;97929;-73
2023/10/17 07:02:41;;;;;;;23.87;13.83;;;;;;;9.53;62.15;100887.97;5035118;27;99233;-74
2023/10/17 07:05:08;;;;;;;29.90;13.80;;;;;;;9.47;62.50;100861.88;5050637;27;97078;-72
2023/10/17 07:07:41;;;;;;;28.50;14.93;;;;;;;9.66;62.41;100895.59;5045628;27;97228;-72
2023/10/17 07:10:16;;;;;;;28.05;14.80;;;;;;;9.77;62.40;100893.59;5061628;27;97558;-72
2023/10/17 07:12:47;;;;;;;26.38;13.98;;;;;;;9.80;62.43;100905.78;5027567;27;100446;-73
2023/10/17 07:15:18;;;;;;;25.08;14.63;;;;;;;9.74;62.32;100905.03;5032952;27;98293;-72
2023/10/17 07:18:39;;;;;;;28.43;16.17;;;;;;;9.65;62.83;100904.34;5048006;27;97957;-72
2023/10/17 07:23:19;;;;;;;28.80;15.98;;;;;;;9.73;63.07;100903.28;5042219;27;97944;-72
2023/10/17 07:25:49;;;;;;;31.55;17.52;;;;;;;9.79;62.50;100891.81;5031255;27;96830;-72
2023/10/17 07:28:15;;;;;;;32.65;16.77;;;;;;;9.88;62.63;100898.59;5044976;27;97731;-73
2023/10/17 07:30:51;;;;;;;29.20;16.55;;;;;;;10.02;62.10;100877.31;5025156;27;101515;-75
2023/10/17 07:33:17;;;;;;;27.50;14.38;;;;;;;10.32;62.04;100904.63;5033020;27;97574;-72
2023/10/17 07:35:43;;;;;;;21.85;14.38;;;;;;;10.46;61.77;100905.16;5037943;27;98191;-73
2023/10/17 07:38:09;;;;;;;24.83;13.73;;;;;;;10.46;61.90;100901.69;5013243;27;98223;-73
2023/10/17 07:43:09;;;;;;;27.67;13.00;;;;;;;10.64;61.23;100896.81;5031308;27;101823;-73
2023/10/17 07:45:40;;;;;;;19.30;12.55;;;;;;;10.55;61.49;100875.19;5054958;27;97916;-73
2023/10/17 07:48:20;;;;;;;;;;;;;;;10.76;61.35;100908.81;5040144;27;97276;-75
2023/10/17 07:50:47;;;;;;;19.73;12.73;;;;;;;10.57;61.57;100866.38;5049794;27;98182;-73
2023/10/17 07:53:19;;;;;;;22.13;13.00;;;;;;;10.67;61.63;100908.16;5042596;27;97484;-73
2023/10/17 07:55:46;;;;;;;;;;;;;;;10.68;61.81;100902.88;5026377;27;96961;-74
2023/10/17 07:58:17;;;;;;;24.77;12.63;;;;;;;10.89;61.40;100906.72;5044254;27;97355;-76
2023/10/17 08:00:44;;;;;;;17.58;11.68;;;;;;;11.03;61.11;100895.84;5044895;27;98665;-72
2023/10/17 08:03:19;;;;;;;17.98;11.25;;;;;;;11.14;60.74;100887.66;5018178;27;101325;-72
2023/10/17 08:05:45;;;;;;;26.67;11.05;;;;;;;11.26;60.23;100895.22;5010336;27;97261;-72
2023/10/17 08:08:14;;;;;;;21.48;9.60;;;;;;;11.38;60.26;100902.75;5013379;27;97485;-74
2023/10/17 08:10:46;;;;;;;13.63;8.95;;;;;;;11.46;59.91;100907.78;5039418;27;97538;-73
2023/10/17 08:13:13;;;;;;;16.35;9.30;;;;;;;11.47;59.92;100904.28;5063295;27;97376;-74
2023/10/17 08:15:46;;;;;;;20.38;10.30;;;;;;;11.47;59.84;100907.75;5040933;27;96783;-73
2023/10/17 08:18:15;;;;;;;16.33;9.32;;;;;;;11.45;59.98;100908.69;5049806;27;97214;-72
2023/10/17 08:23:34;;;;;;;16.45;9.73;;;;;;;11.75;59.31;100909.56;5064793;27;98189;-73
2023/10/17 08:26:00;;;;;;;17.38;10.38;;;;;;;12.12;58.29;100895.34;5044497;27;97010;-73
2023/10/17 08:28:33;;;;;;;16.13;9.00;;;;;;;12.42;58.51;100898.75;5050693;27;97273;-72
2023/10/17 08:31:17;;;;;;;21.55;10.63;;;;;;;12.66;57.50;100894.47;5050997;27;98497;-73
2023/10/17 08:33:47;;;;;;;24.88;10.90;;;;;;;12.71;56.99;100889.91;5036726;27;96841;-73
2023/10/17 08:36:13;;;;;;;19.63;10.07;;;;;;;12.76;56.74;100895.03;5050877;27;96824;-77
2023/10/17 08:38:40;;;;;;;17.73;9.43;;;;;;;12.86;56.75;100899.06;5053742;27;98241;-72
2023/10/17 08:41:06;;;;;;;17.40;8.85;;;;;;;12.68;56.45;100861.03;5008622;27;99078;-72
2023/10/17 08:43:35;;;;;;;14.20;8.52;;;;;;;12.94;56.33;100907.56;5018857;27;97897;-79
2023/10/17 08:46:07;;;;;;;24.92;12.32;;;;;;;12.77;56.62;100880.91;5044438;27;97292;-72
2023/10/17 08:48:34;;;;;;;23.80;11.43;;;;;;;12.87;56.15;100892.88;5033612;27;96865;-79
2023/10/17 08:51:00;;;;;;;13.70;8.02;;;;;;;12.75;56.31;100902.06;5056164;27;97517;-73
2023/10/17 08:53:26;;;;;;;14.23;8.65;;;;;;;12.81;56.50;100896.59;5051339;27;97326;-72
2023/10/17 08:55:52;;;;;;;23.42;11.68;;;;;;;12.87;56.37;100893.75;5020068;27;97381;-72
2023/10/17 09:12:28;;;;;;;13.43;8.15;;;;;;;14.16;53.13;100894.25;5050054;27;97463;-74
2023/10/17 11:37:26;;;;;;;6.88;3.45;;;;;;;15.16;45.58;100761.41;4956829;28;97347;-87
2023/10/17 11:51:06;;;;;;;5.90;4.00;;;;;;;14.75;45.09;100757.13;4907887;28;97147;-79
2023/10/17 11:54:15;;;;;;;4.28;3.00;;;;;;;14.63;45.02;100751.50;4896622;28;97574;-80
2023/10/17 12:07:42;;;;;;;5.00;2.75;;;;;;;13.99;47.59;100739.22;4912430;28;97515;-76
2023/10/17 12:18:10;;;;;;;6.47;3.22;;;;;;;13.53;48.03;100734.97;4904842;28;97350;-76
2023/10/17 12:21:14;;;;;;;9.45;3.13;;;;;;;13.45;48.15;100726.47;4901457;28;97999;-76
2023/10/17 12:23:41;;;;;;;8.45;3.55;;;;;;;13.32;47.55;100734.88;4899298;28;100994;-76
2023/10/17 12:26:19;;;;;;;7.10;3.83;;;;;;;13.20;47.22;100724.75;4909704;28;96882;-77
2023/10/17 12:36:35;;;;;;;5.28;2.90;;;;;;;12.97;47.32;100683.47;4902656;28;97397;-77
2023/10/17 12:42:50;;;;;;;8.13;3.33;;;;;;;13.11;47.93;100711.94;4900348;28;97318;-76
2023/10/17 13:24:09;;;;;;;4.60;2.83;;;;;;;13.00;45.39;100698.28;4904825;28;97140;-76
2023/10/17 13:26:53;;;;;;;5.82;2.90;;;;;;;12.96;45.16;100688.81;4911973;28;97010;-77
2023/10/17 13:29:19;;;;;;;4.72;3.08;;;;;;;12.89;45.06;100690.81;4901699;28;98177;-78
2023/10/17 13:31:44;;;;;;;4.82;2.83;;;;;;;12.90;44.85;100692.53;4919808;28;101280;-77
2023/10/17 13:37:11;;;;;;;;;;;;;;;12.81;45.48;100693.72;5752657;22;101550;-74
2023/10/17 13:39:37;;;;;;;7.90;4.30;;;;;;;12.52;46.89;100665.84;4932440;28;101530;-77
2023/10/17 13:42:03;;;;;;;5.95;3.92;;;;;;;12.46;47.14;100681.88;4911320;28;97548;-76
2023/10/17 13:44:30;;;;;;;8.73;3.45;;;;;;;12.20;47.90;100661.72;4904383;28;96700;-76
2023/10/17 13:46:56;;;;;;;8.85;4.43;;;;;;;12.17;48.42;100690.78;4931183;28;96935;-76
2023/10/17 13:49:22;;;;;;;7.55;4.35;;;;;;;11.99;48.41;100679.97;4933402;28;97434;-79
2023/10/17 13:51:48;;;;;;;7.05;3.97;;;;;;;12.01;48.55;100677.28;4920839;28;98979;-76
2023/10/17 13:54:14;;;;;;;7.68;3.78;;;;;;;12.15;48.81;100679.44;4905395;28;96977;-77
2023/10/17 13:56:43;;;;;;;14.27;3.85;;;;;;;12.16;48.45;100663.63;4932108;28;96898;-77
2023/10/17 13:59:09;;;;;;;10.10;3.58;;;;;;;12.21;48.34;100660.81;4899278;28;97592;-76
2023/10/17 14:01:42;;;;;;;9.20;3.45;;;;;;;12.38;47.79;100681.28;4915874;28;101428;-77
2023/10/17 14:04:11;;;;;;;6.65;3.60;;;;;;;12.30;48.47;100680.69;4906864;28;96783;-77
2023/10/17 14:06:42;;;;;;;6.00;3.53;;;;;;;12.07;48.23;100640.25;4915156;28;97128;-77
2023/10/17 14:09:14;;;;;;;8.10;3.37;;;;;;;12.19;48.17;100649.50;4915724;28;99735;-77
2023/10/17 14:11:46;;;;;;;7.63;3.47;;;;;;;12.03;48.21;100628.09;4927274;28;99212;-77
2023/10/17 14:14:13;;;;;;;8.32;3.30;;;;;;;11.91;48.31;100623.28;4924783;28;97290;-76
2023/10/17 14:16:42;;;;;;;5.10;3.05;;;;;;;12.18;48.46;100645.13;4904341;28;97188;-82
2023/10/17 14:22:08;;;;;;;8.43;3.20;;;;;;;12.28;48.74;100633.38;4913510;28;101408;-78
2023/10/17 14:25:00;;;;;;;4.97;3.65;;;;;;;12.42;48.88;100667.97;4910966;28;97291;-76
2023/10/17 14:27:29;;;;;;;6.85;3.55;;;;;;;12.34;48.26;100663.88;4939319;28;97099;-77
2023/10/17 14:29:59;;;;;;;6.40;3.42;;;;;;;12.12;49.02;100629.56;4931855;28;101697;-77
2023/10/17 14:32:26;;;;;;;7.28;3.58;;;;;;;12.06;48.86;100635.03;4900830;28;99080;-77
2023/10/17 14:34:53;;;;;;;9.30;3.28;;;;;;;12.00;48.52;100636.97;4934651;28;97406;-78
2023/10/17 14:37:18;;;;;;;9.18;3.80;;;;;;;12.04;48.47;100634.22;4940620;28;96959;-77
2023/10/17 14:39:44;;;;;;;9.88;4.32;;;;;;;12.13;47.82;100665.47;4928279;28;97643;-77
2023/10/17 14:42:17;;;;;;;4.68;3.40;;;;;;;12.10;47.98;100663.84;4939862;28;100839;-77
2023/10/17 14:44:45;;;;;;;6.38;3.05;;;;;;;11.84;47.72;100638.41;4904374;28;96995;-77
2023/10/17 14:47:14;;;;;;;6.40;3.00;;;;;;;11.83;48.02;100649.81;4922109;28;97460;-77
2023/10/17 14:49:40;;;;;;;4.35;3.00;;;;;;;11.76;47.70;100625.50;4910500;28;98296;-77
2023/10/17 14:52:06;;;;;;;6.60;3.25;;;;;;;11.91;47.76;100662.75;4913133;28;101333;-79
2023/10/17 14:54:34;;;;;;;6.05;3.03;;;;;;;11.66;48.03;100624.06;4897904;28;98130;-81
2023/10/17 14:57:06;;;;;;;5.45;3.15;;;;;;;11.85;48.80;100655.03;4922370;28;96920;-77
2023/10/17 14:59:34;;;;;;;6.40;3.15;;;;;;;11.78;48.90;100647.34;4921361;28;98096;-78
2023/10/17 15:02:02;;;;;;;9.93;3.58;;;;;;;11.77;49.14;100648.25;4913032;28;100708;-77
2023/10/17 15:04:28;;;;;;;8.30;3.45;;;;;;;11.82;49.48;100636.72;4929604;28;97248;-77
2023/10/17 15:06:53;;;;;;;7.63;3.20;;;;;;;11.69;49.54;100647.66;4931199;28;97152;-77
2023/10/17 15:09:21;;;;;;;6.25;3.58;;;;;;;11.46;49.81;100624.75;4929876;28;98114;-77
2023/10/17 15:11:50;;;;;;;7.20;3.97;;;;;;;11.68;50.17;100660.84;4928527;28;98024;-77
2023/10/17 15:14:15;;;;;;;16.17;4.55;;;;;;;11.60;50.43;100652.34;4946673;28;97417;-77
2023/10/17 15:16:42;;;;;;;11.73;4.45;;;;;;;11.34;51.39;100635.66;4930647;28;96911;-76
2023/10/17 15:19:08;;;;;;;7.15;4.00;;;;;;;11.25;51.30;100607.03;4931051;28;97588;-76
2023/10/17 15:21:34;;;;;;;8.25;4.85;;;;;;;11.23;50.75;100617.63;4930154;28;97584;-77
2023/10/17 15:24:00;;;;;;;7.43;4.75;;;;;;;11.22;50.94;100618.50;4932302;28;97125;-77
2023/10/17 15:26:26;;;;;;;10.13;5.43;;;;;;;11.40;51.29;100643.34;4934734;28;97013;-77
2023/10/17 15:28:53;;;;;;;10.00;5.43;;;;;;;11.25;51.26;100610.53;4916533;28;100471;-77
2023/10/17 15:31:19;;;;;;;13.60;4.65;;;;;;;11.23;51.81;100607.09;4932871;28;98183;-77
2023/10/17 15:33:46;;;;;;;10.68;5.57;;;;;;;11.30;51.86;100628.78;4933749;28;97672;-76
2023/10/17 15:36:13;;;;;;;31.52;5.60;;;;;;;11.08;51.84;100602.31;4933517;28;97319;-76
2023/10/17 15:38:42;;;;;;;10.35;4.88;;;;;;;11.29;51.96;100641.06;4932791;28;97415;-77
2023/10/17 15:41:16;;;;;;;10.43;4.65;;;;;;;11.14;52.18;100644.19;4932354;28;97518;-77
2023/10/17 15:43:43;;;;;;;8.82;5.55;;;;;;;11.17;51.99;100657.22;4935071;28;97055;-76
2023/10/17 15:46:13;;;;;;;9.40;5.00;;;;;;;11.02;52.40;100627.00;4901189;28;96884;-77
2023/10/17 15:48:39;;;;;;;11.13;5.00;;;;;;;11.23;52.75;100650.94;4924712;28;98012;-77
2023/10/17 15:51:04;;;;;;;15.23;5.90;;;;;;;11.20;53.28;100636.13;4932148;28;97806;-76
2023/10/17 15:53:30;;;;;;;14.63;5.68;;;;;;;11.13;54.21;100631.94;4917063;28;98006;-76
2023/10/17 15:55:58;;;;;;;10.77;5.47;;;;;;;11.03;53.54;100618.25;4917127;28;97685;-76
2023/10/17 15:58:28;;;;;;;6.95;5.28;;;;;;;11.11;53.06;100620.59;4917129;28;98266;-76
2023/10/17 16:00:55;;;;;;;8.35;5.40;;;;;;;11.06;53.13;100626.03;4932926;28;97489;-76
2023/10/17 16:03:21;;;;;;;9.05;5.35;;;;;;;10.85;53.38;100593.41;4932573;28;97520;-76
2023/10/17 16:05:51;;;;;;;7.90;5.47;;;;;;;10.84;53.28;100598.69;4933393;28;97861;-76
2023/10/17 16:08:18;;;;;;;11.82;4.93;;;;;;;11.02;53.01;100640.16;4933051;28;97583;-77
2023/10/17 16:10:44;;;;;;;7.18;5.10;;;;;;;10.90;53.93;100618.66;4932643;28;97450;-76
2023/10/17 16:13:11;;;;;;;12.23;5.82;;;;;;;10.95;54.56;100648.28;4901131;28;97602;-76
2023/10/17 16:15:38;;;;;;;11.35;5.82;;;;;;;10.97;54.81;100644.69;4932793;28;97341;-76
2023/10/17 16:18:05;;;;;;;12.27;8.10;;;;;;;10.93;54.76;100650.09;4916125;28;100720;-77
2023/10/17 16:20:32;;;;;;;18.50;6.28;;;;;;;10.93;55.18;100660.59;4932462;28;98047;-77
2023/10/17 16:22:59;;;;;;;15.80;6.93;;;;;;;10.81;54.73;100665.28;4933290;28;97276;-76
2023/10/17 16:25:24;;;;;;;18.33;9.07;;;;;;;10.57;54.83;100611.75;4916705;28;98418;-76
2023/10/17 16:27:51;;;;;;;22.52;6.53;;;;;;;10.94;56.07;100670.19;4932695;28;97982;-76
2023/10/17 16:30:18;;;;;;;19.30;7.38;;;;;;;10.92;56.80;100658.88;4932317;28;97494;-77
2023/10/17 16:32:43;;;;;;;17.65;6.80;;;;;;;10.93;57.48;100660.59;4916200;28;97993;-77
2023/10/17 16:35:09;;;;;;;18.10;7.40;;;;;;;10.98;57.24;100670.06;4916128;28;96948;-76
2023/10/17 16:37:36;;;;;;;19.58;7.97;;;;;;;10.81;57.44;100646.06;4934947;28;97456;-77
2023/10/17 16:40:03;;;;;;;14.68;7.50;;;;;;;10.78;57.14;100654.88;4919523;28;97476;-78
2023/10/17 16:42:30;;;;;;;20.05;6.43;;;;;;;10.87;57.62;100672.13;4935750;28;96805;-76
2023/10/17 16:44:56;;;;;;;24.35;8.02;;;;;;;10.85;57.68;100668.72;4919919;28;96876;-76
2023/10/17 16:47:25;;;;;;;14.32;6.65;;;;;;;10.84;58.14;100665.19;4935477;28;101214;-77
2023/10/17 16:49:52;;;;;;;22.50;7.82;;;;;;;10.81;58.24;100664.44;4919232;28;97497;-77
2023/10/17 16:52:17;;;;;;;20.70;8.52;;;;;;;10.65;56.46;100649.16;4935569;28;96951;-76
2023/10/17 16:54:43;;;;;;;15.07;8.77;;;;;;;10.72;56.02;100669.97;4935659;28;96986;-74
2023/10/17 16:57:10;;;;;;;14.80;8.50;;;;;;;10.70;56.16;100672.63;4933592;28;101191;-75
2023/10/17 16:59:36;;;;;;;17.92;8.57;;;;;;;10.40;56.12;100625.34;4931243;28;97534;-77
2023/10/17 17:02:02;;;;;;;18.02;8.73;;;;;;;10.38;56.12;100623.69;4932454;28;98004;-79
2023/10/17 17:04:31;;;;;;;15.57;8.98;;;;;;;10.62;56.01;100653.63;4934956;28;97229;-79
2023/10/17 17:06:56;;;;;;;32.08;14.70;;;;;;;10.37;56.59;100633.31;4927671;28;98025;-81
2023/10/17 17:09:22;;;;;;;52.92;21.25;;;;;;;10.42;57.44;100641.94;4945082;28;98188;-79
2023/10/17 17:11:49;;;;;;;48.17;22.52;;;;;;;10.46;57.24;100654.97;4912538;28;96820;-81
2023/10/17 17:14:16;;;;;;;45.63;23.10;;;;;;;10.43;57.58;100653.28;4916385;28;96885;-81
2023/10/17 17:16:44;;;;;;;37.28;18.80;;;;;;;10.46;58.01;100657.59;4930653;28;97662;-78
2023/10/17 17:19:12;;;;;;;39.58;19.27;;;;;;;10.28;57.86;100636.19;4914065;28;97347;-78
2023/10/17 17:21:41;;;;;;;38.17;18.65;;;;;;;10.50;58.16;100664.47;4924405;28;97025;-80
2023/10/17 17:24:07;;;;;;;38.50;17.35;;;;;;;10.36;58.07;100652.59;4948399;28;96928;-77